Time;durP1;ratioP1;P1;durP2;ratioP2;P2;SDS_P1;SDS_P2;PMS_P1;PMS_P2;Temp;Humidity;BMP_temperature;BMP_pressure;BME280_temperature;BME280_humidity;BME280_pressure;Samples;Min_cycle;Max_cycle;Signal;HPM_P1;HPM_P2
2023/11/16 00:02:21;;;;;;;2.05;1.55;;;8.50;99.90;;;;;;4992086;28;20714;-59
2023/11/16 00:04:48;;;;;;;5.18;0.80;;;8.60;99.90;;;;;;4992587;28;20287;-58
2023/11/16 00:07:14;;;;;;;1.52;0.50;;;8.70;99.90;;;;;;4975478;28;20248;-59
2023/11/16 00:09:40;;;;;;;0.65;0.65;;;8.70;99.90;;;;;;4992734;28;20176;-59
2023/11/16 00:12:06;;;;;;;1.43;1.40;;;8.60;99.90;;;;;;4992092;28;20181;-59
2023/11/16 00:14:34;;;;;;;30.77;1.47;;;8.50;99.90;;;;;;4992198;28;20521;-59
2023/11/16 00:17:00;;;;;;;1.92;1.83;;;8.60;99.90;;;;;;4992509;28;20430;-59
2023/11/16 00:19:27;;;;;;;1.05;1.05;;;8.60;99.90;;;;;;4975095;28;20214;-59
2023/11/16 00:21:53;;;;;;;1.05;0.80;;;8.70;99.90;;;;;;4992351;28;20261;-59
2023/11/16 00:24:19;;;;;;;0.73;0.73;;;8.70;99.90;;;;;;4992273;28;20200;-59
2023/11/16 00:26:45;;;;;;;12.50;1.00;;;8.80;99.90;;;;;;4992177;28;20243;-59
2023/11/16 00:29:12;;;;;;;0.30;0.30;;;8.70;99.90;;;;;;4992207;28;20207;-59
2023/11/16 00:31:40;;;;;;;3.25;1.17;;;8.60;99.90;;;;;;4992231;28;20211;-59
2023/11/16 00:34:06;;;;;;;0.40;0.40;;;8.70;99.90;;;;;;4991791;28;20200;-59
2023/11/16 00:36:33;;;;;;;0.40;0.40;;;8.80;99.90;;;;;;4992250;28;20226;-59
2023/11/16 00:38:59;;;;;;;1.70;1.60;;;8.90;99.90;;;;;;4992114;28;20165;-59
2023/11/16 00:41:25;;;;;;;1.13;1.13;;;9.00;99.90;;;;;;4992113;28;20307;-59
2023/11/16 00:43:51;;;;;;;0.80;0.57;;;9.10;99.90;;;;;;4974719;28;20282;-59
2023/11/16 00:46:16;;;;;;;1.00;1.00;;;9.00;99.90;;;;;;4992077;28;20179;-59
2023/11/16 00:48:45;;;;;;;0.60;0.50;;;9.00;99.90;;;;;;4992064;28;20168;-59
2023/11/16 00:51:12;;;;;;;1.38;1.02;;;9.00;99.90;;;;;;4991934;28;20191;-59
2023/11/16 00:53:44;;;;;;;1.00;0.93;;;9.00;99.90;;;;;;4991500;28;20210;-60
2023/11/16 00:56:10;;;;;;;0.70;0.70;;;9.10;99.90;;;;;;4992191;28;20172;-60
2023/11/16 00:58:38;;;;;;;0.40;0.40;;;9.00;99.90;;;;;;4974610;28;20557;-60
2023/11/16 01:01:05;;;;;;;0.50;0.40;;;8.90;99.90;;;;;;4992007;28;20176;-60
2023/11/16 01:03:31;;;;;;;0.65;0.65;;;8.80;99.90;;;;;;4991875;28;20698;-60
2023/11/16 01:05:57;;;;;;;0.65;0.65;;;8.80;99.90;;;;;;4992027;28;20179;-60
2023/11/16 01:08:22;;;;;;;2.40;0.90;;;8.80;99.90;;;;;;4991961;28;20176;-60
2023/11/16 01:10:49;;;;;;;0.60;0.60;;;8.80;99.90;;;;;;4991965;28;20169;-60
2023/11/16 01:13:23;;;;;;;0.40;0.40;;;9.00;99.90;;;;;;4991673;28;20176;-60
2023/11/16 01:15:51;;;;;;;1.95;1.40;;;8.90;99.90;;;;;;4991936;28;20175;-60
2023/11/16 01:18:17;;;;;;;1.15;1.05;;;9.00;99.90;;;;;;4991851;28;20452;-60
2023/11/16 01:20:43;;;;;;;2.63;0.85;;;8.80;99.90;;;;;;4991718;28;20247;-60
2023/11/16 01:23:12;;;;;;;0.35;0.35;;;8.70;99.90;;;;;;4991577;28;20195;-60
2023/11/16 01:25:44;;;;;;;1.02;0.98;;;8.70;99.90;;;;;;4991755;28;20230;-60
2023/11/16 01:28:15;;;;;;;1.00;1.00;;;8.70;99.90;;;;;;4991784;28;20169;-60
2023/11/16 01:30:40;;;;;;;0.60;0.60;;;8.70;99.90;;;;;;4991840;28;20187;-60
2023/11/16 01:33:08;;;;;;;0.40;0.40;;;8.70;99.90;;;;;;4991429;28;20173;-60
2023/11/16 01:35:39;;;;;;;0.57;0.57;;;8.60;99.90;;;;;;4991496;28;20226;-60
2023/11/16 01:38:05;;;;;;;0.50;0.50;;;8.50;99.90;;;;;;4974694;28;20180;-60
2023/11/16 01:40:32;;;;;;;0.75;0.75;;;8.50;99.90;;;;;;4991725;28;20505;-60
2023/11/16 01:42:58;;;;;;;4.03;1.58;;;8.30;99.90;;;;;;4991363;28;20185;-60
2023/11/16 01:45:31;;;;;;;1.07;0.50;;;8.30;99.90;;;;;;4991560;28;20200;-60
2023/11/16 01:48:04;;;;;;;3.90;1.98;;;8.30;99.90;;;;;;4991163;28;20262;-60
2023/11/16 01:50:38;;;;;;;0.40;0.40;;;8.20;99.90;;;;;;4991702;28;20602;-60
2023/11/16 01:53:13;;;;;;;0.68;0.40;;;8.30;99.90;;;;;;4994321;28;20665;-60
2023/11/16 01:55:41;;;;;;;0.30;0.30;;;8.30;99.90;;;;;;4995628;28;20215;-60
2023/11/16 01:58:09;;;;;;;0.60;0.60;;;8.40;99.90;;;;;;4994991;28;20223;-60
2023/11/16 02:00:42;;;;;;;0.45;0.45;;;8.50;99.90;;;;;;4995035;28;20184;-60
2023/11/16 02:03:08;;;;;;;0.70;0.55;;;8.40;99.90;;;;;;4994766;28;20242;-60
2023/11/16 02:05:37;;;;;;;1.70;1.02;;;8.40;99.90;;;;;;4994799;28;20674;-60
2023/11/16 02:08:09;;;;;;;0.80;0.60;;;8.50;99.90;;;;;;4977173;28;20180;-60
2023/11/16 02:10:37;;;;;;;0.63;0.63;;;8.50;99.90;;;;;;4994395;28;20184;-60
2023/11/16 02:13:14;;;;;;;0.70;0.70;;;8.50;99.90;;;;;;4979759;28;20308;-60
2023/11/16 02:15:44;;;;;;;0.75;0.68;;;8.40;99.90;;;;;;4974746;28;20208;-60
2023/11/16 02:18:13;;;;;;;1.10;1.10;;;8.50;99.90;;;;;;4975495;28;20235;-60
2023/11/16 02:20:45;;;;;;;1.02;0.55;;;8.70;99.90;;;;;;4974929;28;20180;-60
2023/11/16 02:23:11;;;;;;;0.88;0.50;;;8.80;99.90;;;;;;4958360;28;20169;-60
2023/11/16 02:25:53;;;;;;;0.50;0.50;;;8.80;99.90;;;;;;4975401;28;20184;-60
2023/11/16 02:28:20;;;;;;;0.50;0.50;;;8.80;99.90;;;;;;4973077;28;20419;-60
2023/11/16 02:30:51;;;;;;;0.40;0.40;;;8.90;99.90;;;;;;4974194;28;20177;-60
2023/11/16 02:33:19;;;;;;;0.50;0.50;;;8.90;99.90;;;;;;4973094;28;20557;-59
2023/11/16 02:35:52;;;;;;;0.63;0.63;;;8.80;99.90;;;;;;4974562;28;20642;-59
2023/11/16 02:38:40;;;;;;;1.02;0.82;;;8.50;99.90;;;;;;4939820;28;20184;-60
2023/11/16 02:41:09;;;;;;;4.88;1.58;;;8.40;99.90;;;;;;4973497;28;20184;-60
2023/11/16 02:43:34;;;;;;;0.68;0.65;;;8.30;99.90;;;;;;4957214;28;20690;-60
2023/11/16 02:46:03;;;;;;;1.70;0.60;;;8.20;99.90;;;;;;4974683;28;20177;-60
2023/11/16 02:48:29;;;;;;;0.50;0.50;;;8.20;99.90;;;;;;4974504;28;20594;-60
2023/11/16 02:50:54;;;;;;;1.03;0.50;;;8.20;99.90;;;;;;4982971;28;20319;-60
2023/11/16 02:53:22;;;;;;;0.67;0.67;;;8.20;99.90;;;;;;4993735;28;20179;-60
2023/11/16 02:55:48;;;;;;;0.40;0.40;;;8.20;99.90;;;;;;4994019;28;20180;-60
2023/11/16 02:58:14;;;;;;;0.40;0.40;;;8.20;99.90;;;;;;4993925;28;20256;-60
2023/11/16 03:00:40;;;;;;;3.37;1.03;;;8.30;99.90;;;;;;4993789;28;20212;-60
2023/11/16 03:03:06;;;;;;;1.27;0.57;;;8.30;99.90;;;;;;4992555;28;20173;-60
2023/11/16 03:05:32;;;;;;;0.60;0.60;;;8.30;99.90;;;;;;4993921;28;20207;-60
2023/11/16 03:07:58;;;;;;;3.00;1.02;;;8.30;99.90;;;;;;4993666;28;20184;-60
2023/11/16 03:10:28;;;;;;;2.03;1.43;;;8.30;99.90;;;;;;4993725;28;20251;-60
2023/11/16 03:12:56;;;;;;;1.00;0.90;;;8.40;99.90;;;;;;4993592;28;20176;-60
2023/11/16 03:15:22;;;;;;;0.60;0.60;;;8.30;99.90;;;;;;4993805;28;20733;-60
2023/11/16 03:17:47;;;;;;;1.07;1.07;;;8.20;99.90;;;;;;4994107;28;20276;-60
2023/11/16 03:20:16;;;;;;;0.60;0.60;;;8.20;99.90;;;;;;4993852;28;20227;-60
2023/11/16 03:22:42;;;;;;;0.75;0.60;;;8.30;99.90;;;;;;4993659;28;20164;-60
2023/11/16 03:25:08;;;;;;;0.70;0.70;;;8.30;99.90;;;;;;4993778;28;20203;-60
2023/11/16 03:27:33;;;;;;;0.50;0.50;;;8.40;99.90;;;;;;4992134;28;20673;-60
2023/11/16 03:29:59;;;;;;;1.10;1.00;;;8.50;99.90;;;;;;4993752;28;20184;-60
2023/11/16 03:32:25;;;;;;;0.40;0.40;;;8.60;99.90;;;;;;4993448;28;20620;-60
2023/11/16 03:34:51;;;;;;;0.73;0.40;;;8.50;99.90;;;;;;4993459;28;20239;-60
2023/11/16 03:37:19;;;;;;;0.63;0.63;;;8.50;99.90;;;;;;4976264;28;20214;-60
2023/11/16 03:39:46;;;;;;;0.40;0.40;;;8.60;99.90;;;;;;4993308;28;20172;-60
2023/11/16 03:42:11;;;;;;;4.88;1.13;;;8.70;99.90;;;;;;4972105;28;20512;-60
2023/11/16 03:44:37;;;;;;;0.60;0.60;;;8.60;99.90;;;;;;4991012;28;20322;-60
2023/11/16 03:47:04;;;;;;;1.17;0.70;;;8.50;99.90;;;;;;4993895;28;20250;-60
2023/11/16 03:49:30;;;;;;;0.60;0.60;;;8.50;99.90;;;;;;4993621;28;20564;-60
2023/11/16 03:51:57;;;;;;;0.88;0.88;;;8.50;99.90;;;;;;4993184;28;20548;-60
2023/11/16 03:54:23;;;;;;;0.40;0.40;;;8.50;99.90;;;;;;4975772;28;20203;-60
2023/11/16 03:56:50;;;;;;;1.45;0.98;;;8.60;99.90;;;;;;4993382;28;20173;-60
2023/11/16 03:59:16;;;;;;;2.28;0.85;;;8.70;99.90;;;;;;4993444;28;20649;-60
2023/11/16 04:01:42;;;;;;;2.30;0.40;;;8.70;99.90;;;;;;4993171;28;20174;-60
2023/11/16 04:04:11;;;;;;;2.60;1.40;;;8.70;99.90;;;;;;4992980;28;20303;-60
2023/11/16 04:06:40;;;;;;;0.95;0.95;;;8.60;99.90;;;;;;4993081;28;20650;-59
2023/11/16 04:09:07;;;;;;;0.65;0.50;;;8.50;99.90;;;;;;4993055;28;20211;-60
2023/11/16 04:11:41;;;;;;;1.15;0.40;;;8.60;99.90;;;;;;4993027;28;20281;-60
2023/11/16 04:14:07;;;;;;;1.13;0.63;;;8.60;99.90;;;;;;4975156;28;20233;-60
2023/11/16 04:16:33;;;;;;;0.60;0.50;;;8.60;99.90;;;;;;4992955;28;20199;-60
2023/11/16 04:18:59;;;;;;;2.38;2.15;;;8.60;99.90;;;;;;4992955;28;20462;-60
2023/11/16 04:21:25;;;;;;;1.03;0.97;;;8.60;99.90;;;;;;4992886;28;20177;-60
2023/11/16 04:23:56;;;;;;;0.30;0.30;;;8.60;99.90;;;;;;4992370;28;20185;-60
2023/11/16 04:26:24;;;;;;;0.50;0.40;;;8.50;99.90;;;;;;4992902;28;20172;-59
2023/11/16 04:28:51;;;;;;;3.50;1.52;;;8.60;99.90;;;;;;4992562;28;20172;-59
2023/11/16 04:31:18;;;;;;;5.57;1.40;;;8.70;99.90;;;;;;4992597;28;20196;-60
2023/11/16 04:33:44;;;;;;;1.40;0.40;;;8.60;99.90;;;;;;4992133;28;20211;-60
2023/11/16 04:36:16;;;;;;;2.80;0.70;;;8.60;99.90;;;;;;4992556;28;20175;-60
2023/11/16 04:38:43;;;;;;;1.55;1.45;;;8.50;99.90;;;;;;4992622;28;20172;-60
2023/11/16 04:41:09;;;;;;;0.75;0.75;;;8.50;99.90;;;;;;4991367;28;20654;-60
2023/11/16 04:43:40;;;;;;;4.43;1.02;;;8.50;99.90;;;;;;4992232;28;20196;-60
2023/11/16 04:46:08;;;;;;;1.90;1.17;;;8.50;99.90;;;;;;4992489;28;20557;-60
2023/11/16 04:48:35;;;;;;;0.50;0.50;;;8.60;99.90;;;;;;4992311;28;20234;-60
2023/11/16 04:51:03;;;;;;;0.70;0.50;;;8.60;99.90;;;;;;4992317;28;20180;-60
2023/11/16 04:53:29;;;;;;;0.60;0.40;;;8.50;99.90;;;;;;4992413;28;20222;-60
2023/11/16 04:55:57;;;;;;;0.50;0.50;;;8.50;99.90;;;;;;4992432;28;20172;-60
2023/11/16 04:58:23;;;;;;;0.40;0.40;;;8.50;99.90;;;;;;4992366;28;20219;-60
2023/11/16 05:00:49;;;;;;;0.45;0.45;;;8.50;99.90;;;;;;4992345;28;20263;-60
2023/11/16 05:03:14;;;;;;;1.03;1.03;;;8.50;99.90;;;;;;4991450;28;20251;-60
2023/11/16 05:05:40;;;;;;;0.50;0.50;;;8.50;99.90;;;;;;4992465;28;20594;-60
2023/11/16 05:08:07;;;;;;;8.50;1.23;;;8.50;99.90;;;;;;4992128;28;20263;-60
2023/11/16 05:10:33;;;;;;;0.40;0.40;;;8.50;99.90;;;;;;4992274;28;20183;-60
2023/11/16 05:12:59;;;;;;;0.47;0.47;;;8.40;99.90;;;;;;4991856;28;20176;-59
2023/11/16 05:15:25;;;;;;;0.63;0.63;;;8.40;99.90;;;;;;4991977;28;20270;-59
2023/11/16 05:17:51;;;;;;;0.40;0.40;;;8.50;99.90;;;;;;4992294;28;20254;-60
2023/11/16 05:20:16;;;;;;;0.50;0.50;;;8.50;99.90;;;;;;4992131;28;20682;-60
2023/11/16 05:22:43;;;;;;;0.93;0.63;;;8.50;99.90;;;;;;4991896;28;20609;-60
2023/11/16 05:25:10;;;;;;;0.40;0.40;;;8.50;99.90;;;;;;4992102;28;20283;-60
2023/11/16 05:27:37;;;;;;;0.50;0.50;;;8.50;99.90;;;;;;4994347;28;20677;-60
2023/11/16 05:30:03;;;;;;;2.35;1.30;;;8.50;99.90;;;;;;4995459;28;20192;-60
2023/11/16 05:32:30;;;;;;;0.40;0.40;;;8.50;99.90;;;;;;4995187;28;20192;-60
2023/11/16 05:34:57;;;;;;;0.70;0.70;;;8.50;99.90;;;;;;4995403;28;20581;-60
2023/11/16 05:37:24;;;;;;;1.52;1.40;;;8.40;99.90;;;;;;4995328;28;20246;-60
2023/11/16 05:39:50;;;;;;;0.65;0.65;;;8.40;99.90;;;;;;4995418;28;20200;-60
2023/11/16 05:42:16;;;;;;;0.50;0.50;;;8.40;99.90;;;;;;4995089;28;20638;-60
2023/11/16 05:44:44;;;;;;;3.33;2.00;;;8.30;99.90;;;;;;4995215;28;20203;-60
2023/11/16 05:47:11;;;;;;;0.40;0.40;;;8.20;99.90;;;;;;4995166;28;20184;-60
2023/11/16 05:49:36;;;;;;;0.45;0.45;;;8.00;99.90;;;;;;4995310;28;20199;-60
2023/11/16 05:52:03;;;;;;;0.53;0.53;;;8.00;99.90;;;;;;4977361;28;20725;-60
2023/11/16 05:54:30;;;;;;;0.40;0.40;;;8.00;99.90;;;;;;4995061;28;20196;-60
2023/11/16 05:56:55;;;;;;;1.08;1.08;;;8.10;99.90;;;;;;4995285;28;20288;-60
2023/11/16 05:59:21;;;;;;;0.50;0.50;;;8.10;99.90;;;;;;4995261;28;20658;-60
2023/11/16 06:01:47;;;;;;;0.53;0.53;;;8.20;99.90;;;;;;4994887;28;20222;-60
2023/11/16 06:04:13;;;;;;;0.30;0.30;;;8.20;99.90;;;;;;4994461;28;20955;-60
2023/11/16 06:06:39;;;;;;;6.47;0.50;;;8.20;99.90;;;;;;4994774;28;20419;-60
2023/11/16 06:09:05;;;;;;;0.57;0.57;;;8.10;99.90;;;;;;4994927;28;20183;-60
2023/11/16 06:11:31;;;;;;;0.52;0.52;;;8.10;99.90;;;;;;4994869;28;20236;-60
2023/11/16 06:13:59;;;;;;;0.47;0.47;;;8.10;99.90;;;;;;4994313;28;20294;-60
2023/11/16 06:16:25;;;;;;;0.55;0.55;;;8.10;99.90;;;;;;4994805;28;20178;-60
2023/11/16 06:18:53;;;;;;;0.30;0.30;;;8.10;99.90;;;;;;4994842;28;20180;-60
2023/11/16 06:21:19;;;;;;;0.80;0.80;;;8.00;99.90;;;;;;4994585;28;20179;-60
2023/11/16 06:23:45;;;;;;;0.40;0.40;;;8.00;99.90;;;;;;4994270;28;20189;-60
2023/11/16 06:26:11;;;;;;;0.30;0.30;;;7.90;99.90;;;;;;4994898;28;20229;-60
2023/11/16 06:28:37;;;;;;;0.60;0.60;;;8.00;99.90;;;;;;4994371;28;20527;-60
2023/11/16 06:31:04;;;;;;;0.80;0.80;;;8.00;99.90;;;;;;4994607;28;20986;-60
2023/11/16 06:33:30;;;;;;;0.68;0.65;;;7.90;99.90;;;;;;4993967;28;20415;-60
2023/11/16 06:35:56;;;;;;;0.60;0.60;;;7.90;99.90;;;;;;4994282;28;20176;-60
2023/11/16 06:38:21;;;;;;;0.50;0.50;;;7.90;99.90;;;;;;4994225;28;20165;-60
2023/11/16 06:40:48;;;;;;;0.80;0.80;;;7.90;99.90;;;;;;4994377;28;20172;-60
2023/11/16 06:43:15;;;;;;;1.00;0.95;;;7.90;99.90;;;;;;4976498;28;20707;-60
2023/11/16 06:45:43;;;;;;;0.40;0.40;;;7.90;99.90;;;;;;4994253;28;20203;-60
2023/11/16 06:48:10;;;;;;;0.60;0.60;;;7.90;99.90;;;;;;4994115;28;20258;-60
2023/11/16 06:50:38;;;;;;;0.30;0.30;;;7.90;99.90;;;;;;4994145;28;20179;-60
2023/11/16 06:53:09;;;;;;;0.40;0.40;;;7.80;99.90;;;;;;4993735;28;20246;-60
2023/11/16 06:55:43;;;;;;;0.60;0.60;;;7.90;99.90;;;;;;4993663;28;20211;-60
2023/11/16 06:58:09;;;;;;;0.40;0.40;;;7.80;99.90;;;;;;4994149;28;20259;-60
2023/11/16 07:00:38;;;;;;;1.17;0.63;;;7.80;99.90;;;;;;4993855;28;20183;-60
2023/11/16 07:03:07;;;;;;;0.40;0.40;;;7.90;99.90;;;;;;4976424;28;20172;-60
2023/11/16 07:05:33;;;;;;;9.10;0.68;;;8.00;99.90;;;;;;4993622;28;20199;-60
2023/11/16 07:07:59;;;;;;;0.37;0.37;;;8.10;99.90;;;;;;4993706;28;20168;-60
2023/11/16 07:10:25;;;;;;;0.40;0.40;;;8.30;99.90;;;;;;4993681;28;20164;-60
2023/11/16 07:12:51;;;;;;;0.93;0.82;;;8.40;99.90;;;;;;4993342;28;20180;-60
2023/11/16 07:15:21;;;;;;;0.43;0.43;;;8.40;99.90;;;;;;4993318;28;20218;-60
2023/11/16 07:17:48;;;;;;;0.30;0.30;;;8.50;99.90;;;;;;4993616;28;20169;-58
2023/11/16 07:20:14;;;;;;;3.58;2.33;;;8.50;99.90;;;;;;4994690;28;20172;-58
2023/11/16 07:22:40;;;;;;;1.83;1.73;;;8.50;99.90;;;;;;4992438;28;20276;-58
2023/11/16 07:25:07;;;;;;;2.75;2.53;;;8.50;99.90;;;;;;4993793;28;20196;-58
2023/11/16 07:27:40;;;;;;;1.00;1.00;;;8.40;99.90;;;;;;4993747;28;20188;-58
2023/11/16 07:30:06;;;;;;;0.88;0.88;;;8.40;99.90;;;;;;4993584;28;20548;-58
2023/11/16 07:32:32;;;;;;;0.70;0.70;;;8.40;99.90;;;;;;4993386;28;20204;-58
2023/11/16 07:34:58;;;;;;;0.60;0.60;;;8.40;99.90;;;;;;4993399;28;20204;-58
2023/11/16 07:37:24;;;;;;;0.75;0.75;;;8.40;99.90;;;;;;4993116;28;20173;-58
2023/11/16 07:39:50;;;;;;;0.40;0.40;;;8.50;99.90;;;;;;4993105;28;20180;-58
2023/11/16 07:42:16;;;;;;;1.57;0.97;;;8.40;99.90;;;;;;4992973;28;20226;-58
2023/11/16 07:44:44;;;;;;;0.40;0.40;;;8.40;99.90;;;;;;4993629;28;20202;-58
2023/11/16 07:47:10;;;;;;;0.30;0.30;;;8.40;99.90;;;;;;4993612;28;20172;-58
2023/11/16 07:49:36;;;;;;;1.08;1.05;;;8.50;99.90;;;;;;4992751;28;20200;-56
2023/11/16 07:52:02;;;;;;;3.92;0.80;;;8.50;99.90;;;;;;4992873;28;20174;-58
2023/11/16 07:54:28;;;;;;;1.87;1.77;;;8.60;99.90;;;;;;4993079;28;20291;-58
2023/11/16 07:56:55;;;;;;;0.70;0.70;;;8.60;99.90;;;;;;4993139;28;20420;-58
2023/11/16 07:59:32;;;;;;;13.63;1.50;;;8.70;99.90;;;;;;4992814;28;20176;-58
2023/11/16 08:02:00;;;;;;;1.75;1.65;;;8.90;99.90;;;;;;4992971;28;20223;-58
2023/11/16 08:04:29;;;;;;;3.45;1.00;;;9.10;99.90;;;;;;4992620;28;20196;-58
2023/11/16 08:06:55;;;;;;;6.18;2.60;;;9.30;99.90;;;;;;4993143;28;20283;-58
2023/11/16 08:09:26;;;;;;;7.60;1.13;;;9.40;99.90;;;;;;4993004;28;20682;-58
2023/11/16 08:11:56;;;;;;;1.17;1.15;;;9.50;99.90;;;;;;4993138;28;20192;-58
2023/11/16 08:14:25;;;;;;;1.58;1.48;;;9.60;99.90;;;;;;4992707;28;20262;-58
2023/11/16 08:16:56;;;;;;;3.05;1.10;;;9.50;99.90;;;;;;4992917;28;20176;-60
2023/11/16 08:19:25;;;;;;;0.52;0.52;;;9.50;99.90;;;;;;4993176;28;20175;-56
2023/11/16 08:21:55;;;;;;;0.50;0.50;;;9.50;99.90;;;;;;4992702;28;20602;-59
2023/11/16 08:24:22;;;;;;;2.88;2.67;;;9.40;99.90;;;;;;4975170;28;20600;-61
2023/11/16 08:26:48;;;;;;;0.70;0.70;;;9.30;99.90;;;;;;4992948;28;20172;-58
2023/11/16 08:29:14;;;;;;;1.27;1.17;;;9.30;99.90;;;;;;4992758;28;20650;-58
2023/11/16 08:31:40;;;;;;;2.22;1.42;;;9.30;99.90;;;;;;4992416;28;20188;-59
2023/11/16 08:34:08;;;;;;;3.03;1.40;;;9.30;99.90;;;;;;4992732;28;20208;-58
2023/11/16 08:36:36;;;;;;;1.25;1.15;;;9.30;99.90;;;;;;4992949;28;20646;-57
2023/11/16 08:39:05;;;;;;;1.15;1.05;;;9.30;99.90;;;;;;4975881;28;20188;-58
2023/11/16 08:41:33;;;;;;;0.63;0.63;;;9.20;99.90;;;;;;4992690;28;20173;-58
2023/11/16 08:44:01;;;;;;;0.60;0.60;;;9.20;99.90;;;;;;4992426;28;20202;-58
2023/11/16 08:46:32;;;;;;;0.60;0.60;;;9.30;99.90;;;;;;4959261;28;20263;-59
2023/11/16 08:48:59;;;;;;;0.33;0.33;;;9.20;99.90;;;;;;4959565;28;20742;-58
2023/11/16 08:51:25;;;;;;;0.50;0.50;;;9.20;99.90;;;;;;4937866;29;20425;-59
2023/11/16 08:53:55;;;;;;;1.27;1.15;;;9.30;99.90;;;;;;4965266;28;20695;-59
2023/11/16 08:56:22;;;;;;;0.77;0.65;;;9.40;99.90;;;;;;4972815;28;20177;-59
2023/11/16 08:58:48;;;;;;;0.52;0.52;;;9.50;99.90;;;;;;4955408;28;20204;-59
2023/11/16 09:01:17;;;;;;;10.52;1.05;;;9.50;99.90;;;;;;4953847;28;20177;-60
2023/11/16 09:03:49;;;;;;;3.15;1.00;;;9.50;99.90;;;;;;4957245;28;20208;-59
2023/11/16 09:06:16;;;;;;;0.80;0.80;;;9.50;99.90;;;;;;4965559;28;20169;-59
2023/11/16 09:08:42;;;;;;;1.52;0.73;;;9.50;99.90;;;;;;4976700;28;20244;-59
2023/11/16 09:11:09;;;;;;;4.53;0.90;;;9.50;99.90;;;;;;4975391;28;20191;-59
2023/11/16 09:13:36;;;;;;;0.75;0.75;;;9.50;99.90;;;;;;4975422;28;20200;-59
2023/11/16 09:16:02;;;;;;;0.60;0.60;;;9.50;99.90;;;;;;4976182;28;20260;-59
2023/11/16 09:18:27;;;;;;;0.40;0.40;;;9.50;99.90;;;;;;4976323;28;20255;-59
2023/11/16 09:20:56;;;;;;;6.13;1.13;;;9.50;99.90;;;;;;4976270;28;20181;-59
2023/11/16 09:23:23;;;;;;;2.00;1.65;;;9.50;99.90;;;;;;4966643;28;20188;-59
2023/11/16 09:25:48;;;;;;;1.95;0.55;;;9.40;99.90;;;;;;4956716;29;20193;-59
2023/11/16 09:28:15;;;;;;;0.40;0.40;;;9.40;99.90;;;;;;4956646;29;20184;-59
2023/11/16 09:30:43;;;;;;;0.80;0.80;;;9.40;99.90;;;;;;4956965;29;20501;-59
2023/11/16 09:33:13;;;;;;;1.00;1.00;;;9.30;99.90;;;;;;4965800;28;20211;-58
2023/11/16 09:35:40;;;;;;;23.10;6.65;;;9.30;99.90;;;;;;4975825;28;20588;-59
2023/11/16 09:38:09;;;;;;;1.95;1.45;;;9.30;99.80;;;;;;4958429;28;20188;-59
2023/11/16 09:40:37;;;;;;;3.90;2.17;;;9.20;99.50;;;;;;4975797;28;20177;-60
2023/11/16 09:43:17;;;;;;;6.07;5.10;;;9.10;99.30;;;;;;4975383;28;20200;-59
2023/11/16 09:45:47;;;;;;;2.60;2.42;;;9.10;99.20;;;;;;4975028;28;20267;-58
2023/11/16 09:48:14;;;;;;;3.97;3.65;;;8.90;98.80;;;;;;4958445;28;20185;-59
2023/11/16 09:50:44;;;;;;;1.35;1.30;;;9.00;99.10;;;;;;4957242;28;20239;-58
2023/11/16 09:53:18;;;;;;;0.40;0.40;;;9.00;98.70;;;;;;4969743;28;20181;-59
2023/11/16 09:56:04;;;;;;;4.03;0.73;;;8.90;98.60;;;;;;4975187;28;20212;-60
2023/11/16 09:58:36;;;;;;;1.92;1.77;;;8.90;98.50;;;;;;4975674;28;20169;-59
2023/11/16 10:01:10;;;;;;;1.05;0.95;;;8.70;98.80;;;;;;4975435;28;20177;-59
2023/11/16 10:03:38;;;;;;;0.98;0.98;;;8.70;98.80;;;;;;4955571;28;20200;-58
2023/11/16 10:06:04;;;;;;;5.97;0.90;;;8.70;98.90;;;;;;4970305;28;20643;-59
2023/11/16 10:08:33;;;;;;;1.73;1.63;;;8.50;98.90;;;;;;4954265;29;20174;-59
2023/11/16 10:11:05;;;;;;;4.80;1.20;;;8.50;99.20;;;;;;4965340;28;20176;-59
2023/11/16 10:13:31;;;;;;;2.25;0.90;;;8.70;99.50;;;;;;4973304;28;20204;-59
2023/11/16 10:16:11;;;;;;;11.17;3.33;;;9.00;99.30;;;;;;4975389;28;20760;-60
2023/11/16 10:18:38;;;;;;;2.53;1.48;;;9.10;98.60;;;;;;4973472;28;20463;-61
2023/11/16 10:21:05;;;;;;;1.60;1.50;;;9.40;98.80;;;;;;4938521;29;20655;-59
2023/11/16 10:23:32;;;;;;;2.00;0.82;;;9.40;98.40;;;;;;4955460;28;20178;-59
2023/11/16 10:26:00;;;;;;;0.80;0.80;;;9.40;98.10;;;;;;4955428;29;20659;-59
2023/11/16 10:28:26;;;;;;;0.50;0.50;;;9.60;98.30;;;;;;4955698;29;20185;-59
2023/11/16 10:30:54;;;;;;;1.45;1.35;;;9.80;97.60;;;;;;4955701;29;20261;-59
2023/11/16 10:33:23;;;;;;;1.55;0.73;;;10.00;96.90;;;;;;4955203;28;20184;-59
2023/11/16 10:35:55;;;;;;;0.60;0.60;;;10.10;96.30;;;;;;4958108;28;20582;-59
2023/11/16 10:38:27;;;;;;;0.60;0.60;;;10.10;95.50;;;;;;4976781;28;20216;-59
2023/11/16 10:40:54;;;;;;;0.30;0.30;;;10.10;95.70;;;;;;4974901;28;20534;-58
2023/11/16 10:43:27;;;;;;;0.75;0.75;;;10.10;95.50;;;;;;4974965;28;20280;-59
2023/11/16 10:45:59;;;;;;;0.88;0.85;;;10.40;95.80;;;;;;4971551;28;20255;-59
2023/11/16 10:48:25;;;;;;;1.52;1.30;;;10.60;95.60;;;;;;4957574;28;20647;-59
2023/11/16 10:50:52;;;;;;;0.83;0.83;;;10.60;94.40;;;;;;4974544;28;20188;-60
2023/11/16 10:53:23;;;;;;;0.40;0.40;;;10.90;94.00;;;;;;4974214;28;20416;-60
2023/11/16 10:55:50;;;;;;;0.60;0.60;;;11.10;94.70;;;;;;4974617;28;20900;-60
2023/11/16 10:58:20;;;;;;;0.40;0.40;;;11.10;93.70;;;;;;4974779;28;20412;-59
2023/11/16 11:00:51;;;;;;;3.33;0.80;;;10.90;93.60;;;;;;4974496;28;20413;-60
2023/11/16 11:03:18;;;;;;;3.33;1.80;;;10.90;94.20;;;;;;4959453;28;20425;-59
2023/11/16 11:05:51;;;;;;;7.30;4.80;;;10.80;93.80;;;;;;4954862;29;20421;-59
2023/11/16 11:08:19;;;;;;;3.70;2.40;;;10.60;93.60;;;;;;4955012;29;20938;-59
2023/11/16 11:10:49;;;;;;;0.80;0.80;;;10.70;94.20;;;;;;4955094;29;20793;-60
2023/11/16 11:13:25;;;;;;;1.03;0.87;;;10.90;93.70;;;;;;4954487;29;20444;-59
2023/11/16 11:15:53;;;;;;;3.70;1.07;;;11.20;92.80;;;;;;4954931;29;20485;-59
2023/11/16 11:18:26;;;;;;;0.60;0.60;;;11.30;92.20;;;;;;4954787;29;20428;-59
2023/11/16 11:21:12;;;;;;;0.40;0.40;;;11.30;92.10;;;;;;4954798;29;20416;-59
2023/11/16 11:23:38;;;;;;;1.03;1.03;;;11.30;91.90;;;;;;4953943;28;21070;-60
2023/11/16 11:26:05;;;;;;;4.03;3.73;;;11.30;92.20;;;;;;4954113;29;20513;-60
2023/11/16 11:28:35;;;;;;;1.17;1.07;;;11.50;92.30;;;;;;4954294;29;20180;-60
2023/11/16 11:31:04;;;;;;;0.53;0.53;;;11.60;92.90;;;;;;4954621;29;20494;-59
2023/11/16 11:33:34;;;;;;;0.73;0.67;;;11.60;92.70;;;;;;4954376;29;20421;-59
2023/11/16 11:36:16;;;;;;;1.13;1.03;;;11.50;92.40;;;;;;4957510;28;20522;-59
2023/11/16 11:38:42;;;;;;;2.90;0.70;;;11.30;92.90;;;;;;4973770;28;20423;-60
2023/11/16 11:41:12;;;;;;;3.10;1.27;;;11.30;93.90;;;;;;4973464;28;20412;-59
2023/11/16 11:43:41;;;;;;;3.13;1.07;;;11.40;92.80;;;;;;4956362;28;20436;-59
2023/11/16 11:46:12;;;;;;;0.70;0.70;;;11.40;92.90;;;;;;4973655;28;20499;-59
2023/11/16 11:48:41;;;;;;;0.40;0.40;;;11.40;92.80;;;;;;4973625;28;20417;-60
2023/11/16 11:51:08;;;;;;;1.47;0.50;;;11.50;92.80;;;;;;4973622;28;20495;-60
2023/11/16 11:53:34;;;;;;;0.40;0.40;;;11.40;92.60;;;;;;4973135;28;20808;-59
2023/11/16 11:56:02;;;;;;;0.50;0.50;;;11.20;92.10;;;;;;4976384;28;20964;-60
2023/11/16 11:58:28;;;;;;;0.67;0.60;;;10.80;93.10;;;;;;4975680;28;20511;-59
2023/11/16 12:00:55;;;;;;;1.53;1.13;;;10.70;94.00;;;;;;4975741;28;20507;-58
2023/11/16 12:03:21;;;;;;;2.73;0.60;;;10.60;93.50;;;;;;4968786;28;20433;-59
2023/11/16 12:05:58;;;;;;;0.80;0.80;;;10.40;93.80;;;;;;4953304;29;20504;-59
2023/11/16 12:08:46;;;;;;;0.40;0.40;;;10.30;94.30;;;;;;4954136;29;20460;-59
2023/11/16 12:11:13;;;;;;;0.47;0.47;;;10.10;95.00;;;;;;4953861;28;20539;-59
2023/11/16 12:13:40;;;;;;;0.50;0.40;;;10.10;95.90;;;;;;4936186;29;21135;-60
2023/11/16 12:16:09;;;;;;;0.70;0.70;;;10.20;96.10;;;;;;4953550;29;20434;-60
2023/11/16 12:18:41;;;;;;;0.30;0.30;;;10.20;96.90;;;;;;4953633;29;20998;-60
2023/11/16 12:21:16;;;;;;;0.40;0.40;;;10.20;97.00;;;;;;4954051;29;20476;-60
2023/11/16 12:23:48;;;;;;;1.05;0.70;;;10.20;96.70;;;;;;4952939;29;20531;-56
2023/11/16 12:26:28;;;;;;;0.60;0.60;;;10.20;97.00;;;;;;4936523;29;20192;-59
2023/11/16 12:28:55;;;;;;;0.60;0.60;;;10.20;97.50;;;;;;4953614;29;20468;-61
2023/11/16 12:31:22;;;;;;;0.50;0.50;;;10.00;97.30;;;;;;4953843;29;20413;-58
2023/11/16 12:33:48;;;;;;;4.22;0.68;;;9.80;98.60;;;;;;4953174;29;20238;-60
2023/11/16 12:36:22;;;;;;;0.40;0.40;;;9.80;99.40;;;;;;4936163;29;20174;-59
2023/11/16 12:38:48;;;;;;;0.77;0.73;;;9.60;99.40;;;;;;4953609;29;20177;-60
2023/11/16 12:41:16;;;;;;;0.50;0.50;;;9.60;99.90;;;;;;4952282;28;20228;-59
2023/11/16 12:43:43;;;;;;;1.02;0.82;;;9.70;99.90;;;;;;4952999;29;20710;-60
2023/11/16 12:46:11;;;;;;;0.73;0.70;;;9.70;99.90;;;;;;4953423;29;20185;-59
2023/11/16 12:48:38;;;;;;;0.70;0.70;;;9.70;99.90;;;;;;4953584;29;20189;-60
2023/11/16 12:51:06;;;;;;;2.47;1.15;;;9.80;99.60;;;;;;4953425;29;20180;-60
2023/11/16 12:53:32;;;;;;;1.27;1.17;;;9.80;99.30;;;;;;4952991;29;20181;-60
2023/11/16 12:55:58;;;;;;;0.30;0.30;;;9.90;99.20;;;;;;4953225;29;20204;-57
2023/11/16 12:58:28;;;;;;;3.23;0.73;;;9.90;99.00;;;;;;4953263;29;20618;-59
2023/11/16 13:00:56;;;;;;;1.05;0.70;;;9.70;99.00;;;;;;4953410;29;20796;-59